Airfield :
LOGIN :

Register | Disclaimer

   EN    FR    IT 

 










Legend :    VFR   Marginal VFR   IFR   Intensive IFR   Very Intensive IFR
Visi :
Ceiling :
>= 8 km
>= 3000ft
5 to 8 km
1000 to 3000 ft
1500m to 5 km
500 to 1000 ft
800 to 1500m
200 to 500 ft
< 800m
< 200 ft
Symbols :   Thunderstorms  Fog  Heavy snow  Heavy precipitations  Wind > 20 kt
SIGMETs :     Misc.  Thunderstorms  Icing  Turbulence  Mountain Waves  Volcanic Ashes






- Airport Elevation : 93 ft
- IATA code : XRY


LEJR - Jerez

CURRENT METAR :
  • 261730Z 25003KT 220V280 6000 -DZ BKN005 OVC009 17/16 Q1026

EXPIRED METARs :
  • 261700Z 28004KT 250V310 6000 -DZ BKN005 OVC009 17/16 Q1026
  • 261630Z 28004KT 250V320 9999 BKN005 OVC012 17/16 Q1026
  • 261600Z 28006KT 250V340 9999 BKN006 OVC012 17/16 Q1026
  • 261530Z 28007KT 250V320 9999 BKN006 OVC012 17/17 Q1026
  • 261500Z 27007KT 9999 BKN006 OVC012 17/16 Q1026

TAF TAF LEJR
Valid from the 26 at 18:00 until the 27 at 18:00 UTC


261700Z 2618/2718 24005KT 9999 BKN012 TX18/2715Z TN14/2706Z
TEMPO 2618/2712 BKN008
TEMPO 2619/2711 4000 BR BKN004
PROB40
TEMPO 2619/2710 0500 FG VV001
BECMG 2712/2714 SCT020



MET'MAP, your aeronautical weather chart ! - Copyright ORBIFLY December 2007 - Disclaimer

ORBIFLY MET'MAP TEAM :

Programming & Development : Alexandra Zaïnal
Concept & original design : Baudouin d'Aumeries
Assistance for programming : Marc-Olivier Méhu
Technical & hardware support : Manuel Goepfert

Contact : metmap@orbifly.com




SOURCES & CREDITS :

   NOAA